Time;durP1;ratioP1;P1;durP2;ratioP2;P2;SDS_P1;SDS_P2;PMS_P1;PMS_P2;Temp;Humidity;BMP_temperature;BMP_pressure;BME280_temperature;BME280_humidity;BME280_pressure;Samples;Min_cycle;Max_cycle;Signal;HPM_P1;HPM_P2
2021/01/03 00:00:08;;;;;;;42.28;11.02;;;;;;;;;;5080674;28;20296;-59
2021/01/03 00:02:34;;;;;;;41.00;11.15;;;;;;;;;;5078182;28;20083;-59
2021/01/03 00:05:00;;;;;;;36.38;10.05;;;;;;;;;;5082635;28;20125;-59
2021/01/03 00:07:27;;;;;;;39.35;9.15;;;;;;;;;;5077874;28;20052;-59
2021/01/03 00:09:53;;;;;;;32.45;9.43;;;;;;;;;;5081947;28;20098;-60
2021/01/03 00:12:18;;;;;;;40.13;10.18;;;;;;;;;;5078966;28;20047;-59
2021/01/03 00:14:46;;;;;;;34.00;9.55;;;;;;;;;;5084069;28;20048;-59
2021/01/03 00:17:12;;;;;;;34.70;9.82;;;;;;;;;;5077772;28;20051;-59
2021/01/03 00:19:38;;;;;;;31.90;8.88;;;;;;;;;;5082269;28;20121;-60
2021/01/03 00:22:04;;;;;;;37.78;10.70;;;;;;;;;;5080155;28;20066;-59
2021/01/03 00:24:30;;;;;;;45.35;12.00;;;;;;;;;;5081397;28;20072;-60
2021/01/03 00:26:56;;;;;;;34.75;9.52;;;;;;;;;;5078372;28;20036;-59
2021/01/03 00:29:22;;;;;;;35.70;8.80;;;;;;;;;;5079993;28;20303;-59
2021/01/03 00:31:50;;;;;;;39.45;9.45;;;;;;;;;;5078696;28;20562;-60
2021/01/03 00:34:16;;;;;;;35.97;8.90;;;;;;;;;;5081905;28;20051;-59
2021/01/03 00:36:43;;;;;;;36.22;9.32;;;;;;;;;;5079046;28;20154;-58
2021/01/03 00:39:09;;;;;;;36.45;9.73;;;;;;;;;;5082363;28;20052;-59
2021/01/03 00:41:35;;;;;;;36.55;8.38;;;;;;;;;;5080834;28;20048;-59
2021/01/03 00:44:03;;;;;;;27.38;7.45;;;;;;;;;;5076359;28;20047;-60
2021/01/03 00:46:29;;;;;;;39.70;9.60;;;;;;;;;;5061461;28;20055;-59
2021/01/03 00:48:56;;;;;;;35.75;9.90;;;;;;;;;;5074982;28;20394;-60
2021/01/03 00:51:22;;;;;;;35.25;9.40;;;;;;;;;;5082222;28;20033;-60
2021/01/03 00:53:48;;;;;;;38.33;9.75;;;;;;;;;;5078010;28;20134;-59
2021/01/03 00:56:14;;;;;;;40.08;10.38;;;;;;;;;;5081450;28;20020;-60
2021/01/03 00:58:40;;;;;;;45.47;11.93;;;;;;;;;;5078735;28;20036;-59
2021/01/03 01:01:07;;;;;;;38.00;10.50;;;;;;;;;;5080915;28;20048;-59
2021/01/03 01:03:33;;;;;;;31.75;9.95;;;;;;;;;;5075362;28;20043;-60
2021/01/03 01:06:00;;;;;;;32.30;9.40;;;;;;;;;;5061238;28;20136;-60
2021/01/03 01:08:26;;;;;;;34.35;10.40;;;;;;;;;;5062452;28;20040;-59
2021/01/03 01:10:52;;;;;;;35.17;10.70;;;;;;;;;;5081806;28;20121;-58
2021/01/03 01:13:19;;;;;;;29.13;9.15;;;;;;;;;;5077863;28;20044;-60
2021/01/03 01:15:46;;;;;;;38.70;10.25;;;;;;;;;;5081824;28;20063;-60
2021/01/03 01:18:12;;;;;;;37.65;10.98;;;;;;;;;;5081248;28;20028;-59
2021/01/03 01:20:38;;;;;;;38.80;11.15;;;;;;;;;;5074751;28;20040;-59
2021/01/03 01:23:06;;;;;;;42.10;10.27;;;;;;;;;;5079933;28;20056;-59
2021/01/03 01:25:33;;;;;;;40.65;12.20;;;;;;;;;;5075286;28;20127;-59
2021/01/03 01:28:00;;;;;;;40.58;11.07;;;;;;;;;;5079618;28;20105;-59
2021/01/03 01:30:27;;;;;;;34.95;9.77;;;;;;;;;;5075664;28;20051;-60
2021/01/03 01:32:53;;;;;;;36.35;11.70;;;;;;;;;;5081513;28;20076;-60
2021/01/03 01:35:20;;;;;;;37.15;10.25;;;;;;;;;;5078180;28;20064;-59
2021/01/03 01:37:46;;;;;;;34.80;10.32;;;;;;;;;;5079650;28;20033;-60
2021/01/03 01:40:15;;;;;;;37.55;10.13;;;;;;;;;;5078469;28;20040;-59
2021/01/03 01:42:41;;;;;;;35.33;10.23;;;;;;;;;;5080428;28;20036;-59
2021/01/03 01:45:08;;;;;;;39.03;11.43;;;;;;;;;;5077954;28;20161;-59
2021/01/03 01:47:36;;;;;;;38.47;12.07;;;;;;;;;;5080768;28;20117;-59
2021/01/03 01:50:05;;;;;;;45.90;11.98;;;;;;;;;;5078098;28;20048;-59
2021/01/03 01:52:31;;;;;;;;;;;;;;;;;;5082195;28;20040;-59
2021/01/03 01:54:58;;;;;;;31.33;9.05;;;;;;;;;;5076234;28;20088;-59
2021/01/03 01:57:28;;;;;;;34.83;10.57;;;;;;;;;;5081059;28;20032;-59
2021/01/03 01:59:57;;;;;;;35.35;9.10;;;;;;;;;;5078748;28;20064;-59
2021/01/03 02:02:26;;;;;;;38.70;10.68;;;;;;;;;;5078719;28;20051;-58
2021/01/03 02:04:55;;;;;;;34.97;10.88;;;;;;;;;;5080625;28;20104;-60
2021/01/03 02:07:25;;;;;;;29.55;8.45;;;;;;;;;;5077272;28;20068;-59
2021/01/03 02:09:54;;;;;;;39.03;10.07;;;;;;;;;;5080382;28;20028;-59
2021/01/03 02:12:23;;;;;;;41.40;11.27;;;;;;;;;;5077135;28;20040;-59
2021/01/03 02:14:50;;;;;;;34.38;10.32;;;;;;;;;;5081106;28;20032;-59
2021/01/03 02:17:16;;;;;;;39.05;9.95;;;;;;;;;;5076477;28;20263;-59
2021/01/03 02:19:42;;;;;;;34.13;9.50;;;;;;;;;;5078742;28;20048;-59
2021/01/03 02:22:13;;;;;;;38.22;10.95;;;;;;;;;;5077546;28;20057;-60
2021/01/03 02:24:42;;;;;;;34.55;9.80;;;;;;;;;;5080543;28;20037;-59
2021/01/03 02:27:10;;;;;;;36.35;10.05;;;;;;;;;;5078010;28;20044;-59
2021/01/03 02:29:38;;;;;;;35.63;10.95;;;;;;;;;;5081496;28;20142;-59
2021/01/03 02:32:05;;;;;;;34.53;9.15;;;;;;;;;;5077005;28;20120;-59
2021/01/03 02:34:33;;;;;;;32.72;9.32;;;;;;;;;;5082030;28;20047;-59
2021/01/03 02:37:01;;;;;;;38.80;11.05;;;;;;;;;;5076792;28;20067;-59
2021/01/03 02:39:32;;;;;;;39.47;9.77;;;;;;;;;;5083741;28;20036;-59
2021/01/03 02:42:03;;;;;;;32.88;9.57;;;;;;;;;;5078773;28;20121;-59
2021/01/03 02:44:30;;;;;;;32.90;9.23;;;;;;;;;;5084049;28;20042;-60
2021/01/03 02:46:56;;;;;;;37.38;9.82;;;;;;;;;;5082781;28;20036;-59
2021/01/03 02:49:22;;;;;;;34.10;10.05;;;;;;;;;;5082673;28;20146;-60
2021/01/03 02:51:48;;;;;;;41.65;9.43;;;;;;;;;;5083364;28;20044;-59
2021/01/03 02:54:15;;;;;;;37.42;10.85;;;;;;;;;;5080693;28;20081;-59
2021/01/03 02:56:41;;;;;;;30.13;8.27;;;;;;;;;;5080993;28;20052;-59
2021/01/03 02:59:07;;;;;;;38.80;9.68;;;;;;;;;;5077280;28;20033;-59
2021/01/03 03:01:35;;;;;;;30.48;9.52;;;;;;;;;;5117872;22;20041;-59
2021/01/03 03:04:02;;;;;;;33.05;9.48;;;;;;;;;;5040609;28;20036;-60
2021/01/03 03:06:28;;;;;;;26.95;9.43;;;;;;;;;;5046210;28;20040;-59
2021/01/03 03:08:54;;;;;;;29.00;9.13;;;;;;;;;;5031632;28;20060;-59
2021/01/03 03:11:20;;;;;;;28.92;8.80;;;;;;;;;;5011969;28;20049;-59
2021/01/03 03:13:46;;;;;;;32.25;9.52;;;;;;;;;;5023611;28;20045;-59
2021/01/03 03:16:17;;;;;;;34.92;9.23;;;;;;;;;;5044460;28;20334;-59
2021/01/03 03:18:44;;;;;;;29.48;8.35;;;;;;;;;;5044226;28;20047;-60
2021/01/03 03:21:10;;;;;;;28.38;8.52;;;;;;;;;;5003599;28;20108;-59
2021/01/03 03:23:37;;;;;;;29.80;8.75;;;;;;;;;;5009760;28;20046;-59
2021/01/03 03:26:03;;;;;;;32.08;10.00;;;;;;;;;;5016765;28;20045;-59
2021/01/03 03:28:29;;;;;;;32.90;9.52;;;;;;;;;;5043496;28;20037;-59
2021/01/03 03:30:55;;;;;;;32.15;9.27;;;;;;;;;;5035114;28;20046;-60
2021/01/03 03:33:25;;;;;;;32.40;9.02;;;;;;;;;;5023297;28;20042;-59
2021/01/03 03:35:52;;;;;;;27.23;8.80;;;;;;;;;;5024088;28;20125;-59
2021/01/03 03:38:18;;;;;;;35.55;10.10;;;;;;;;;;5038922;28;20037;-59
2021/01/03 03:40:44;;;;;;;38.72;9.57;;;;;;;;;;5045030;28;20041;-59
2021/01/03 03:43:10;;;;;;;41.05;8.70;;;;;;;;;;5028045;28;20048;-59
2021/01/03 03:45:36;;;;;;;27.25;8.45;;;;;;;;;;5024393;28;20128;-59
2021/01/03 03:48:02;;;;;;;30.92;9.50;;;;;;;;;;5028011;28;20043;-59
2021/01/03 03:50:28;;;;;;;32.60;8.90;;;;;;;;;;5048281;28;20032;-60
2021/01/03 03:52:56;;;;;;;30.60;8.60;;;;;;;;;;5041804;28;20048;-59
2021/01/03 03:55:22;;;;;;;29.80;8.93;;;;;;;;;;5025951;28;20037;-59
2021/01/03 03:57:48;;;;;;;32.45;9.88;;;;;;;;;;5026364;28;20071;-59
2021/01/03 04:00:15;;;;;;;39.97;10.02;;;;;;;;;;5056430;28;20049;-59
2021/01/03 04:02:42;;;;;;;33.38;9.88;;;;;;;;;;5064583;28;20053;-59
2021/01/03 04:05:09;;;;;;;33.67;9.10;;;;;;;;;;5041362;28;20060;-59
2021/01/03 04:07:35;;;;;;;26.92;7.80;;;;;;;;;;5046542;28;20041;-59
2021/01/03 04:10:02;;;;;;;29.10;8.73;;;;;;;;;;5037519;28;20052;-59
2021/01/03 04:12:28;;;;;;;29.92;9.40;;;;;;;;;;5028241;28;20114;-59
2021/01/03 04:14:55;;;;;;;29.27;8.98;;;;;;;;;;5026029;28;20048;-59
2021/01/03 04:17:21;;;;;;;28.65;8.68;;;;;;;;;;5039947;28;20037;-59
2021/01/03 04:19:47;;;;;;;41.58;9.20;;;;;;;;;;5048471;28;20057;-59
2021/01/03 04:22:13;;;;;;;27.42;8.93;;;;;;;;;;5042522;28;20059;-59
2021/01/03 04:24:45;;;;;;;29.58;8.60;;;;;;;;;;5047918;28;20067;-59
2021/01/03 04:27:12;;;;;;;28.83;9.75;;;;;;;;;;5048196;28;20059;-59
2021/01/03 04:29:38;;;;;;;32.85;9.23;;;;;;;;;;5048800;28;20048;-59
2021/01/03 04:32:05;;;;;;;32.97;9.38;;;;;;;;;;5043730;28;20036;-59
2021/01/03 04:34:31;;;;;;;32.33;9.10;;;;;;;;;;5046446;28;20032;-59
2021/01/03 04:36:57;;;;;;;36.30;9.18;;;;;;;;;;5044613;28;20032;-60
2021/01/03 04:39:24;;;;;;;39.63;10.35;;;;;;;;;;5065481;28;20041;-59
2021/01/03 04:41:55;;;;;;;30.85;9.60;;;;;;;;;;5042650;28;20041;-59
2021/01/03 04:44:24;;;;;;;32.35;10.07;;;;;;;;;;5047625;28;20044;-59
2021/01/03 04:46:51;;;;;;;37.15;11.38;;;;;;;;;;5043606;28;20060;-60
2021/01/03 04:49:21;;;;;;;29.52;8.75;;;;;;;;;;5047944;28;20043;-59
2021/01/03 04:52:11;;;;;;;38.20;10.00;;;;;;;;;;5045553;28;20032;-59
2021/01/03 04:54:47;;;;;;;33.50;8.85;;;;;;;;;;5027868;28;20045;-59
2021/01/03 04:57:15;;;;;;;40.72;11.60;;;;;;;;;;5042698;28;20133;-59
2021/01/03 04:59:42;;;;;;;32.33;9.43;;;;;;;;;;5045942;28;20090;-59
2021/01/03 05:02:33;;;;;;;39.13;10.93;;;;;;;;;;5042439;28;20037;-59
2021/01/03 05:05:08;;;;;;;41.03;10.70;;;;;;;;;;5025575;28;20605;-59
2021/01/03 05:07:35;;;;;;;38.53;10.15;;;;;;;;;;5025426;28;20033;-59
2021/01/03 05:10:07;;;;;;;48.15;11.57;;;;;;;;;;5047715;28;20060;-60
2021/01/03 05:12:36;;;;;;;40.45;9.88;;;;;;;;;;5044770;28;20075;-59
2021/01/03 05:17:33;;;;;;;30.25;9.07;;;;;;;;;;5044780;28;19936;-59
2021/01/03 05:20:00;;;;;;;35.63;9.88;;;;;;;;;;5042192;28;20048;-59
2021/01/03 05:22:27;;;;;;;38.95;11.10;;;;;;;;;;5046105;28;20029;-59
2021/01/03 05:24:56;;;;;;;41.22;10.93;;;;;;;;;;5059545;28;20025;-60
2021/01/03 05:27:22;;;;;;;43.50;11.43;;;;;;;;;;5046137;28;20097;-59
2021/01/03 05:29:48;;;;;;;43.08;13.05;;;;;;;;;;5041829;28;20114;-59
2021/01/03 05:32:24;;;;;;;42.85;10.43;;;;;;;;;;5045494;28;20049;-60
2021/01/03 05:34:52;;;;;;;43.60;10.93;;;;;;;;;;5041728;28;20033;-59
2021/01/03 05:37:20;;;;;;;47.75;13.02;;;;;;;;;;5064646;28;20049;-59
2021/01/03 05:39:50;;;;;;;38.63;12.17;;;;;;;;;;5043245;28;20039;-60
2021/01/03 05:42:34;;;;;;;47.10;13.52;;;;;;;;;;5063303;28;20281;-59
2021/01/03 05:45:04;;;;;;;39.45;11.90;;;;;;;;;;5042587;28;20047;-59
2021/01/03 05:47:31;;;;;;;34.78;9.80;;;;;;;;;;5047151;28;20044;-59
2021/01/03 05:50:10;;;;;;;39.33;11.93;;;;;;;;;;5043674;28;20048;-60
2021/01/03 05:52:36;;;;;;;;;;;;;;;;;;5053052;28;20047;-59
2021/01/03 05:55:07;;;;;;;36.35;9.63;;;;;;;;;;5042920;28;19932;-59
2021/01/03 05:57:34;;;;;;;35.40;10.27;;;;;;;;;;5046052;28;20051;-59
2021/01/03 06:00:13;;;;;;;42.53;11.68;;;;;;;;;;5042078;28;20072;-58
2021/01/03 06:02:39;;;;;;;48.22;11.80;;;;;;;;;;5042325;28;20075;-60
2021/01/03 06:05:07;;;;;;;39.55;11.60;;;;;;;;;;5039099;28;20044;-59
2021/01/03 06:07:35;;;;;;;42.78;11.85;;;;;;;;;;5040454;28;20041;-60
2021/01/03 06:10:01;;;;;;;38.97;11.55;;;;;;;;;;5038284;28;20052;-59
2021/01/03 06:12:28;;;;;;;36.20;10.30;;;;;;;;;;5044533;28;20057;-60
2021/01/03 06:15:00;;;;;;;38.92;11.07;;;;;;;;;;5046363;28;20049;-60
2021/01/03 06:17:32;;;;;;;43.78;11.85;;;;;;;;;;5045045;28;20045;-59
2021/01/03 06:20:01;;;;;;;39.45;11.95;;;;;;;;;;5045423;28;20065;-59
2021/01/03 06:22:42;;;;;;;49.05;11.20;;;;;;;;;;5042894;28;20116;-59
2021/01/03 06:25:19;;;;;;;40.42;11.73;;;;;;;;;;5040768;28;20053;-59
2021/01/03 06:27:46;;;;;;;42.38;11.32;;;;;;;;;;5040235;28;20036;-59
2021/01/03 06:30:13;;;;;;;38.63;12.18;;;;;;;;;;5046206;28;20060;-59
2021/01/03 06:32:53;;;;;;;38.88;11.52;;;;;;;;;;5043370;28;20037;-59
2021/01/03 06:35:25;;;;;;;39.10;11.50;;;;;;;;;;5045433;28;20045;-59
2021/01/03 06:37:58;;;;;;;37.40;11.32;;;;;;;;;;5041378;28;20115;-58
2021/01/03 06:40:30;;;;;;;38.67;11.43;;;;;;;;;;5045111;28;20248;-59
2021/01/03 06:43:15;;;;;;;40.60;11.35;;;;;;;;;;5040121;28;20041;-59
2021/01/03 06:45:58;;;;;;;37.95;11.32;;;;;;;;;;5046179;28;20109;-59
2021/01/03 06:48:51;;;;;;;37.25;11.70;;;;;;;;;;5041521;28;20053;-59
2021/01/03 06:51:23;;;;;;;40.85;12.18;;;;;;;;;;5009203;28;20049;-59
2021/01/03 06:54:07;;;;;;;37.75;12.50;;;;;;;;;;5044693;28;20122;-59
2021/01/03 06:56:50;;;;;;;42.53;12.55;;;;;;;;;;5043036;28;20049;-59
2021/01/03 06:59:24;;;;;;;46.08;12.05;;;;;;;;;;5022127;28;20098;-60
2021/01/03 07:01:51;;;;;;;43.85;10.65;;;;;;;;;;5023146;28;20048;-59
2021/01/03 07:04:21;;;;;;;39.60;12.23;;;;;;;;;;5025255;28;20105;-59
2021/01/03 07:06:47;;;;;;;43.58;13.48;;;;;;;;;;5024917;28;20037;-59
2021/01/03 07:09:14;;;;;;;38.67;12.85;;;;;;;;;;5040494;28;20053;-60
2021/01/03 07:11:42;;;;;;;43.50;12.63;;;;;;;;;;5043864;28;20049;-59
2021/01/03 07:14:12;;;;;;;42.83;12.80;;;;;;;;;;5041714;28;20033;-59
2021/01/03 07:16:50;;;;;;;38.35;11.82;;;;;;;;;;5047784;28;20114;-58
2021/01/03 07:19:18;;;;;;;47.30;11.77;;;;;;;;;;5044591;28;20045;-58
2021/01/03 07:21:44;;;;;;;44.10;11.95;;;;;;;;;;5045008;28;20069;-59
2021/01/03 07:24:31;;;;;;;44.13;12.13;;;;;;;;;;5039876;28;20048;-59
2021/01/03 07:27:16;;;;;;;36.45;11.10;;;;;;;;;;5045472;28;20037;-59
2021/01/03 07:29:50;;;;;;;38.75;10.15;;;;;;;;;;5041624;28;20061;-60
2021/01/03 07:32:17;;;;;;;39.35;12.40;;;;;;;;;;5043946;28;20086;-59
2021/01/03 07:34:49;;;;;;;41.45;13.02;;;;;;;;;;5040690;28;20045;-59
2021/01/03 07:37:17;;;;;;;31.40;10.63;;;;;;;;;;5044899;28;20056;-59
2021/01/03 07:39:56;;;;;;;37.03;11.48;;;;;;;;;;5041366;28;20107;-59
2021/01/03 07:42:23;;;;;;;46.10;13.48;;;;;;;;;;5043613;28;20069;-59
2021/01/03 07:44:51;;;;;;;44.22;12.82;;;;;;;;;;5040514;28;20045;-59
2021/01/03 07:47:47;;;;;;;35.33;11.15;;;;;;;;;;5044818;28;20049;-59
2021/01/03 07:50:22;;;;;;;38.00;11.98;;;;;;;;;;4961582;28;20043;-59
2021/01/03 07:52:52;;;;;;;35.50;11.15;;;;;;;;;;5028987;28;20070;-59
2021/01/03 07:55:26;;;;;;;29.50;9.73;;;;;;;;;;5041452;28;20037;-59
2021/01/03 07:57:53;;;;;;;36.15;11.07;;;;;;;;;;5043597;28;20041;-59
2021/01/03 08:00:22;;;;;;;36.83;11.25;;;;;;;;;;5042283;28;20049;-59
2021/01/03 08:02:56;;;;;;;37.05;11.73;;;;;;;;;;5044994;28;20077;-59
2021/01/03 08:05:24;;;;;;;36.72;10.73;;;;;;;;;;5041391;28;20057;-59
2021/01/03 08:07:50;;;;;;;40.38;11.48;;;;;;;;;;5044809;28;20048;-59
2021/01/03 08:10:16;;;;;;;42.40;12.40;;;;;;;;;;5041699;28;20040;-59
2021/01/03 08:12:47;;;;;;;33.60;11.30;;;;;;;;;;5044337;28;20038;-59
2021/01/03 08:15:20;;;;;;;33.13;11.05;;;;;;;;;;5038787;28;20029;-59
2021/01/03 08:17:47;;;;;;;39.13;11.82;;;;;;;;;;5043935;28;20034;-59
2021/01/03 08:20:16;;;;;;;38.58;12.27;;;;;;;;;;5038551;28;20067;-59
2021/01/03 08:22:42;;;;;;;33.30;11.13;;;;;;;;;;5043043;28;20033;-59
2021/01/03 08:25:14;;;;;;;30.23;10.55;;;;;;;;;;5040062;28;20033;-59
2021/01/03 08:27:43;;;;;;;35.60;11.93;;;;;;;;;;5043749;28;20130;-59
2021/01/03 08:30:13;;;;;;;41.35;11.13;;;;;;;;;;5043635;28;20053;-59
2021/01/03 08:32:40;;;;;;;40.22;13.07;;;;;;;;;;5042902;28;20048;-59
2021/01/03 08:35:09;;;;;;;37.80;12.93;;;;;;;;;;5041728;28;20029;-59
2021/01/03 08:37:37;;;;;;;33.53;12.20;;;;;;;;;;5039626;28;20119;-59
2021/01/03 08:40:11;;;;;;;33.65;10.20;;;;;;;;;;5043685;28;20080;-59
2021/01/03 08:42:41;;;;;;;36.15;11.75;;;;;;;;;;5048770;28;20077;-63
2021/01/03 08:45:15;;;;;;;37.65;11.45;;;;;;;;;;5057181;28;20037;-59
2021/01/03 08:47:41;;;;;;;31.40;10.35;;;;;;;;;;5040943;28;20091;-59
2021/01/03 08:50:10;;;;;;;31.08;9.90;;;;;;;;;;5043429;28;20048;-60
2021/01/03 08:52:37;;;;;;;36.35;10.88;;;;;;;;;;5037260;28;20045;-58
2021/01/03 08:55:07;;;;;;;25.73;8.52;;;;;;;;;;5042808;28;20041;-59
2021/01/03 08:57:33;;;;;;;31.40;10.32;;;;;;;;;;5039310;28;20085;-59
2021/01/03 08:59:59;;;;;;;40.53;12.85;;;;;;;;;;5042416;28;20049;-59
2021/01/03 09:02:27;;;;;;;29.23;10.25;;;;;;;;;;5038594;28;20055;-59
2021/01/03 09:05:03;;;;;;;30.95;11.43;;;;;;;;;;5042620;28;20048;-59
2021/01/03 09:07:33;;;;;;;35.80;9.70;;;;;;;;;;5040441;28;20052;-58
2021/01/03 09:10:01;;;;;;;28.95;11.27;;;;;;;;;;5044387;28;20033;-59
2021/01/03 09:12:34;;;;;;;28.38;10.52;;;;;;;;;;5039444;28;20053;-59
2021/01/03 09:15:02;;;;;;;29.50;9.82;;;;;;;;;;5044002;28;20097;-59
2021/01/03 09:17:30;;;;;;;29.23;8.80;;;;;;;;;;5039495;28;20066;-59
2021/01/03 09:19:59;;;;;;;33.53;10.52;;;;;;;;;;5044361;28;20057;-59
2021/01/03 09:22:25;;;;;;;;;;;;;;;;;;5039333;28;20053;-59
2021/01/03 09:24:58;;;;;;;29.13;9.07;;;;;;;;;;5042329;28;19925;-59
2021/01/03 09:27:26;;;;;;;24.77;8.85;;;;;;;;;;5043718;28;20054;-59
2021/01/03 09:29:54;;;;;;;27.77;8.95;;;;;;;;;;5040893;28;20041;-59
2021/01/03 09:32:26;;;;;;;29.02;7.97;;;;;;;;;;5044307;28;20044;-60
2021/01/03 09:35:04;;;;;;;24.63;8.57;;;;;;;;;;5039324;28;20047;-60
2021/01/03 09:37:31;;;;;;;24.70;8.15;;;;;;;;;;5043616;28;20172;-59
2021/01/03 09:40:21;;;;;;;18.20;5.95;;;;;;;;;;5038611;28;20049;-58
2021/01/03 09:42:59;;;;;;;22.95;8.65;;;;;;;;;;5041818;28;20061;-59
2021/01/03 09:45:43;;;;;;;20.67;7.32;;;;;;;;;;5038471;28;20041;-59
2021/01/03 09:48:24;;;;;;;24.45;8.20;;;;;;;;;;5032946;28;20017;-59
2021/01/03 09:50:50;;;;;;;21.63;7.97;;;;;;;;;;5024418;28;20040;-59
2021/01/03 09:53:28;;;;;;;23.98;8.60;;;;;;;;;;5027583;28;20372;-59
2021/01/03 09:55:57;;;;;;;18.25;6.47;;;;;;;;;;5041214;28;20052;-59
2021/01/03 09:58:33;;;;;;;20.25;7.45;;;;;;;;;;5041077;28;20037;-59
2021/01/03 10:00:59;;;;;;;26.45;7.55;;;;;;;;;;5057688;28;20089;-59
2021/01/03 10:03:38;;;;;;;20.27;7.35;;;;;;;;;;5061779;28;20065;-59
2021/01/03 10:06:16;;;;;;;27.10;8.05;;;;;;;;;;5043803;28;20037;-59
2021/01/03 10:08:42;;;;;;;17.65;6.10;;;;;;;;;;5052544;28;20036;-59
2021/01/03 10:11:10;;;;;;;19.00;6.80;;;;;;;;;;5044067;28;20032;-58
2021/01/03 10:13:53;;;;;;;21.03;6.83;;;;;;;;;;5048142;28;20044;-59
2021/01/03 10:16:20;;;;;;;18.00;5.70;;;;;;;;;;5043054;28;20289;-59
2021/01/03 10:18:46;;;;;;;12.77;5.03;;;;;;;;;;5046377;28;20035;-59
2021/01/03 10:21:29;;;;;;;19.98;6.72;;;;;;;;;;5061887;28;20052;-59
2021/01/03 10:24:02;;;;;;;16.35;6.38;;;;;;;;;;5054250;28;20033;-59
2021/01/03 10:26:30;;;;;;;15.82;5.10;;;;;;;;;;5040642;28;20033;-59
2021/01/03 10:28:56;;;;;;;15.93;5.57;;;;;;;;;;5043294;28;20052;-59
2021/01/03 10:31:23;;;;;;;13.38;5.32;;;;;;;;;;5045055;28;20117;-59
2021/01/03 10:33:51;;;;;;;15.30;5.55;;;;;;;;;;5043614;28;20122;-59
2021/01/03 10:36:18;;;;;;;16.65;5.43;;;;;;;;;;5041869;28;20039;-59
2021/01/03 10:38:44;;;;;;;13.98;5.30;;;;;;;;;;5046761;28;20060;-59
2021/01/03 10:41:10;;;;;;;14.27;5.25;;;;;;;;;;5041727;28;20032;-59
2021/01/03 10:43:37;;;;;;;14.50;5.30;;;;;;;;;;5046718;28;20033;-59
2021/01/03 10:46:03;;;;;;;13.63;4.65;;;;;;;;;;5044981;28;20021;-58
2021/01/03 10:48:29;;;;;;;15.40;4.13;;;;;;;;;;5042968;28;20085;-60
2021/01/03 10:50:55;;;;;;;15.02;4.57;;;;;;;;;;5044518;28;20064;-59
2021/01/03 10:53:23;;;;;;;14.73;4.68;;;;;;;;;;5045720;28;20043;-59
2021/01/03 10:55:49;;;;;;;16.33;5.32;;;;;;;;;;5044072;28;20045;-59
2021/01/03 10:58:15;;;;;;;15.63;4.65;;;;;;;;;;5041679;28;20037;-59
2021/01/03 11:00:42;;;;;;;14.68;4.93;;;;;;;;;;5040116;28;20053;-59
2021/01/03 11:03:09;;;;;;;17.48;5.68;;;;;;;;;;5037655;28;20049;-59
2021/01/03 11:05:35;;;;;;;14.15;5.25;;;;;;;;;;5039965;28;20037;-59
2021/01/03 11:08:02;;;;;;;14.65;5.00;;;;;;;;;;5035854;28;20034;-59
2021/01/03 11:10:28;;;;;;;12.57;4.78;;;;;;;;;;5040626;28;20073;-59
2021/01/03 11:13:01;;;;;;;11.75;4.55;;;;;;;;;;5037586;28;20038;-59
2021/01/03 11:15:27;;;;;;;14.25;5.05;;;;;;;;;;5042562;28;20048;-60
2021/01/03 11:17:54;;;;;;;14.55;4.20;;;;;;;;;;5038860;28;20037;-60
2021/01/03 11:20:20;;;;;;;14.63;4.70;;;;;;;;;;5041919;28;20040;-60
2021/01/03 11:22:46;;;;;;;12.25;4.03;;;;;;;;;;5036326;28;20102;-60
2021/01/03 11:25:13;;;;;;;11.43;4.30;;;;;;;;;;5042229;28;20073;-59
2021/01/03 11:27:39;;;;;;;9.02;3.88;;;;;;;;;;5039663;28;20029;-60
2021/01/03 11:30:06;;;;;;;9.68;3.63;;;;;;;;;;5040401;28;20045;-59
2021/01/03 11:32:32;;;;;;;10.43;3.97;;;;;;;;;;5046302;28;20115;-59
2021/01/03 11:35:00;;;;;;;13.77;4.43;;;;;;;;;;5034248;28;20046;-59
2021/01/03 11:37:28;;;;;;;11.05;4.05;;;;;;;;;;5030037;28;20051;-59
2021/01/03 11:39:54;;;;;;;11.48;4.20;;;;;;;;;;5042776;28;20435;-59
2021/01/03 11:42:26;;;;;;;8.38;3.33;;;;;;;;;;5044628;28;20126;-59
2021/01/03 11:44:53;;;;;;;9.88;3.63;;;;;;;;;;5042254;28;20055;-59
2021/01/03 11:47:19;;;;;;;10.35;3.63;;;;;;;;;;5044524;28;20058;-59
2021/01/03 11:49:45;;;;;;;9.48;3.85;;;;;;;;;;5040946;28;20044;-59
2021/01/03 11:52:12;;;;;;;11.40;3.85;;;;;;;;;;5044558;28;20107;-59
2021/01/03 11:54:39;;;;;;;9.93;3.35;;;;;;;;;;5039374;28;20037;-59
2021/01/03 11:57:05;;;;;;;11.75;4.18;;;;;;;;;;5043908;28;20044;-60
2021/01/03 11:59:32;;;;;;;13.73;4.30;;;;;;;;;;5040983;28;20033;-59
2021/01/03 12:01:58;;;;;;;9.45;3.55;;;;;;;;;;5050531;28;20029;-59
2021/01/03 12:04:29;;;;;;;11.43;4.28;;;;;;;;;;5043841;28;20047;-59
2021/01/03 12:06:59;;;;;;;12.43;3.75;;;;;;;;;;5064765;28;20037;-59
2021/01/03 12:09:28;;;;;;;12.38;3.92;;;;;;;;;;5043478;28;20040;-59
2021/01/03 12:11:55;;;;;;;9.88;3.95;;;;;;;;;;5047351;28;20115;-59
2021/01/03 12:14:21;;;;;;;13.23;4.25;;;;;;;;;;5043385;28;21091;-59
2021/01/03 12:16:52;;;;;;;12.38;4.50;;;;;;;;;;5065098;28;20047;-58
2021/01/03 12:19:18;;;;;;;12.80;3.65;;;;;;;;;;5044155;28;20032;-59
2021/01/03 12:21:44;;;;;;;10.30;3.00;;;;;;;;;;5066748;28;20033;-58
2021/01/03 12:24:10;;;;;;;11.00;3.72;;;;;;;;;;5047922;28;20037;-60
2021/01/03 12:26:40;;;;;;;12.13;3.42;;;;;;;;;;5044007;28;20110;-59
2021/01/03 12:29:06;;;;;;;13.27;3.75;;;;;;;;;;5047523;28;20069;-59
2021/01/03 12:31:33;;;;;;;11.35;3.67;;;;;;;;;;5044258;28;20041;-59
2021/01/03 12:34:02;;;;;;;11.85;4.30;;;;;;;;;;5048399;28;20044;-59
2021/01/03 12:36:28;;;;;;;10.70;4.15;;;;;;;;;;5060190;28;20526;-59
2021/01/03 12:38:54;;;;;;;11.68;4.18;;;;;;;;;;5048386;28;20037;-59
2021/01/03 12:41:21;;;;;;;13.20;4.55;;;;;;;;;;5043518;28;20032;-59
2021/01/03 12:43:49;;;;;;;10.93;4.47;;;;;;;;;;5048122;28;20044;-59
2021/01/03 12:46:15;;;;;;;12.68;4.38;;;;;;;;;;5043472;28;20048;-59
2021/01/03 12:48:41;;;;;;;14.80;4.43;;;;;;;;;;5046257;28;20029;-59
2021/01/03 12:51:08;;;;;;;17.85;4.70;;;;;;;;;;5057490;28;20048;-59
2021/01/03 12:53:34;;;;;;;17.23;5.32;;;;;;;;;;5029171;28;20022;-59
2021/01/03 12:56:00;;;;;;;14.40;5.00;;;;;;;;;;5045077;28;20028;-59
2021/01/03 12:58:26;;;;;;;13.55;4.95;;;;;;;;;;5058315;28;20040;-59
2021/01/03 13:00:53;;;;;;;13.13;5.07;;;;;;;;;;5049048;28;20045;-58
2021/01/03 13:03:19;;;;;;;16.30;5.53;;;;;;;;;;5047858;28;20048;-59
2021/01/03 13:05:45;;;;;;;15.18;5.15;;;;;;;;;;5046613;28;20033;-59
2021/01/03 13:08:11;;;;;;;13.82;5.15;;;;;;;;;;5040149;28;20053;-59
2021/01/03 13:10:39;;;;;;;16.98;5.93;;;;;;;;;;5045630;28;20055;-59
2021/01/03 13:13:09;;;;;;;17.73;5.40;;;;;;;;;;5042059;28;20057;-59
2021/01/03 13:15:35;;;;;;;14.68;4.95;;;;;;;;;;5046493;28;20099;-59
2021/01/03 13:18:02;;;;;;;21.17;5.60;;;;;;;;;;5042246;28;20037;-59
2021/01/03 13:20:28;;;;;;;13.75;4.90;;;;;;;;;;5056675;28;20056;-59
2021/01/03 13:22:55;;;;;;;18.20;6.63;;;;;;;;;;5040011;28;20060;-59
2021/01/03 13:25:21;;;;;;;14.32;5.53;;;;;;;;;;5041332;28;20061;-59
2021/01/03 13:27:49;;;;;;;12.05;4.40;;;;;;;;;;5060363;28;20040;-59
2021/01/03 13:30:19;;;;;;;14.07;5.35;;;;;;;;;;5044001;28;20061;-59
2021/01/03 13:32:45;;;;;;;16.95;5.93;;;;;;;;;;5037084;28;20066;-59
2021/01/03 13:35:14;;;;;;;17.42;6.90;;;;;;;;;;5046978;28;20036;-59
2021/01/03 13:37:40;;;;;;;19.10;6.55;;;;;;;;;;5057379;28;20051;-59
2021/01/03 13:40:06;;;;;;;16.02;5.28;;;;;;;;;;5042691;28;20034;-58
2021/01/03 13:42:32;;;;;;;18.65;5.57;;;;;;;;;;5039330;28;20033;-59
2021/01/03 13:45:00;;;;;;;13.02;5.00;;;;;;;;;;5042415;28;20033;-59
2021/01/03 13:47:26;;;;;;;15.90;5.97;;;;;;;;;;5044736;28;20514;-60
2021/01/03 13:49:52;;;;;;;20.13;6.60;;;;;;;;;;5038341;28;20040;-59
2021/01/03 13:52:19;;;;;;;14.52;5.85;;;;;;;;;;5042884;28;20071;-59
2021/01/03 13:54:51;;;;;;;18.90;5.60;;;;;;;;;;5039971;28;20044;-59
2021/01/03 13:57:17;;;;;;;15.43;5.00;;;;;;;;;;5041695;28;20469;-58
2021/01/03 13:59:43;;;;;;;18.00;5.63;;;;;;;;;;5037927;28;20041;-59
2021/01/03 14:02:09;;;;;;;21.25;7.35;;;;;;;;;;5038683;28;20029;-59
2021/01/03 14:04:41;;;;;;;19.17;5.72;;;;;;;;;;5037219;28;20041;-58
2021/01/03 14:07:08;;;;;;;16.77;5.70;;;;;;;;;;5043403;28;20065;-59
2021/01/03 14:09:35;;;;;;;6.60;2.30;;;;;;;;;;5035386;28;20073;-59
2021/01/03 14:12:01;;;;;;;12.48;4.63;;;;;;;;;;5040348;28;20066;-59
2021/01/03 14:14:29;;;;;;;16.70;5.25;;;;;;;;;;5035891;28;20123;-59
2021/01/03 14:16:56;;;;;;;17.02;5.50;;;;;;;;;;5039173;28;20089;-60
2021/01/03 14:19:22;;;;;;;16.02;5.72;;;;;;;;;;5032925;28;20032;-59
2021/01/03 14:21:48;;;;;;;18.98;6.13;;;;;;;;;;5041635;28;20041;-59
2021/01/03 14:24:22;;;;;;;20.05;6.47;;;;;;;;;;5043344;28;20041;-59
2021/01/03 14:26:51;;;;;;;20.65;6.03;;;;;;;;;;5041124;28;20029;-59
2021/01/03 14:29:19;;;;;;;13.88;5.20;;;;;;;;;;5034004;28;20029;-59
2021/01/03 14:31:50;;;;;;;13.27;5.50;;;;;;;;;;5040533;28;20044;-59
2021/01/03 14:34:22;;;;;;;13.73;5.20;;;;;;;;;;5042492;28;20034;-59
2021/01/03 14:36:49;;;;;;;14.20;5.22;;;;;;;;;;5041685;28;20049;-59